createdAt,value
2024-02-10T00:01:14.490Z,4.86
2024-02-10T00:03:45.277Z,4.89
2024-02-10T00:06:15.881Z,4.87
2024-02-10T00:08:43.075Z,4.82
2024-02-10T00:11:11.496Z,4.77
2024-02-10T00:13:40.237Z,4.74
2024-02-10T00:16:07.606Z,4.69
2024-02-10T00:18:35.284Z,4.64
2024-02-10T00:21:02.758Z,4.64
2024-02-10T00:23:29.786Z,4.64
2024-02-10T00:25:57.328Z,4.62
2024-02-10T00:28:25.506Z,4.64
2024-02-10T00:30:56.268Z,4.63
2024-02-10T00:33:31.243Z,4.63
2024-02-10T00:35:57.927Z,4.65
2024-02-10T00:38:24.294Z,4.64
2024-02-10T00:40:50.741Z,4.64
2024-02-10T00:43:17.159Z,4.66
2024-02-10T00:45:46.890Z,4.67
2024-02-10T00:48:13.589Z,4.71
2024-02-10T00:50:40.882Z,4.76
2024-02-10T00:53:08.775Z,4.74
2024-02-10T00:55:35.101Z,4.68
2024-02-10T00:58:02.907Z,4.64
2024-02-10T01:00:31.063Z,4.65
2024-02-10T01:02:58.478Z,4.63
2024-02-10T01:05:26.534Z,4.63
2024-02-10T01:07:53.158Z,4.63
2024-02-10T01:10:20.636Z,4.67
2024-02-10T01:12:47.205Z,4.69
2024-02-10T01:15:13.936Z,4.69
2024-02-10T01:17:46.662Z,4.71
2024-02-10T01:20:17.521Z,4.73
2024-02-10T01:22:45.642Z,4.71
2024-02-10T01:25:12.361Z,4.73
2024-02-10T01:27:38.681Z,4.72
2024-02-10T01:30:05.092Z,4.74
2024-02-10T01:32:33.684Z,4.78
2024-02-10T01:35:00.025Z,4.82
2024-02-10T01:37:27.225Z,4.82
2024-02-10T01:39:56.690Z,4.79
2024-02-10T01:42:38.090Z,4.77
2024-02-10T01:45:04.647Z,4.77
2024-02-10T01:47:31.047Z,4.77
2024-02-10T01:49:57.599Z,4.75
2024-02-10T01:52:24.195Z,4.68
2024-02-10T01:54:50.470Z,4.64
2024-02-10T01:57:16.767Z,4.65
2024-02-10T01:59:44.931Z,4.65
2024-02-10T02:02:15.108Z,4.63
2024-02-10T02:04:41.529Z,4.62
2024-02-10T02:07:09.612Z,4.61
2024-02-10T02:09:35.996Z,4.60
2024-02-10T02:12:02.759Z,4.60
2024-02-10T02:14:29.170Z,4.59
2024-02-10T02:16:56.211Z,4.58
2024-02-10T02:19:22.538Z,4.61
2024-02-10T02:21:49.168Z,4.64
2024-02-10T02:24:16.655Z,4.65
2024-02-10T02:26:42.864Z,4.67
2024-02-10T02:29:09.299Z,4.68
2024-02-10T02:31:35.935Z,4.68
2024-02-10T02:34:04.805Z,4.64
2024-02-10T02:36:31.787Z,4.61
2024-02-10T02:39:02.406Z,4.59
2024-02-10T02:41:29.878Z,4.61
2024-02-10T02:43:56.444Z,4.63
2024-02-10T02:46:23.940Z,4.64
2024-02-10T02:48:51.095Z,4.65
2024-02-10T02:51:19.885Z,4.68
2024-02-10T02:53:49.017Z,4.70
2024-02-10T02:56:16.192Z,4.71
2024-02-10T02:58:42.467Z,4.72
2024-02-10T03:01:09.018Z,4.75
2024-02-10T03:03:35.427Z,4.75
2024-02-10T03:06:02.086Z,4.74
2024-02-10T03:08:29.894Z,4.73
2024-02-10T03:10:57.227Z,4.71
2024-02-10T03:13:25.731Z,4.73
2024-02-10T03:15:52.183Z,4.74
2024-02-10T03:18:18.989Z,4.79
2024-02-10T03:20:45.466Z,4.85
2024-02-10T03:23:14.556Z,4.88
2024-02-10T03:25:44.225Z,4.92
2024-02-10T03:28:10.722Z,4.97
2024-02-10T03:30:36.973Z,5.00
2024-02-10T03:33:03.606Z,5.02
2024-02-10T03:35:33.173Z,5.04
2024-02-10T03:37:59.688Z,5.05
2024-02-10T03:40:26.331Z,5.07
2024-02-10T03:42:52.702Z,5.07
2024-02-10T03:45:19.237Z,5.08
2024-02-10T03:47:45.599Z,5.11
2024-02-10T03:50:12.258Z,5.07
2024-02-10T03:52:38.622Z,5.06
2024-02-10T03:55:05.109Z,5.08
2024-02-10T03:57:32.463Z,5.11
2024-02-10T03:59:58.786Z,5.16
2024-02-10T04:02:25.005Z,5.19
2024-02-10T04:04:52.140Z,5.24
2024-02-10T04:07:18.692Z,5.27
2024-02-10T04:09:45.889Z,5.32
2024-02-10T04:12:12.257Z,5.37
2024-02-10T04:14:38.748Z,5.42
2024-02-10T04:17:05.089Z,5.44
2024-02-10T04:19:32.966Z,5.49
2024-02-10T04:21:59.206Z,5.54
2024-02-10T04:24:26.315Z,5.56
2024-02-10T04:26:52.732Z,5.57
2024-02-10T04:29:19.906Z,5.62
2024-02-10T04:31:47.702Z,5.66
2024-02-10T04:34:14.099Z,5.70
2024-02-10T04:36:41.418Z,5.73
2024-02-10T04:39:07.811Z,5.74
2024-02-10T04:41:34.554Z,5.75
2024-02-10T04:44:01.150Z,5.78
2024-02-10T04:46:29.729Z,5.78
2024-02-10T04:48:56.393Z,5.77
2024-02-10T04:51:24.037Z,5.77
2024-02-10T04:53:50.273Z,5.79
2024-02-10T04:56:16.904Z,5.79
2024-02-10T04:58:43.500Z,5.81
2024-02-10T05:01:11.212Z,5.83
2024-02-10T05:03:41.114Z,5.83
2024-02-10T05:06:11.300Z,5.84
2024-02-10T05:08:37.959Z,5.86
2024-02-10T05:11:04.321Z,5.85
2024-02-10T05:13:30.816Z,5.86
2024-02-10T05:15:57.503Z,5.86
2024-02-10T05:18:24.208Z,5.86
2024-02-10T05:20:50.787Z,5.89
2024-02-10T05:23:19.000Z,5.89
2024-02-10T05:25:45.393Z,5.89
2024-02-10T05:28:13.585Z,5.89
2024-02-10T05:30:40.142Z,5.87
2024-02-10T05:33:06.965Z,5.84
2024-02-10T05:35:33.722Z,5.85
2024-02-10T05:38:00.576Z,5.83
2024-02-10T05:40:27.298Z,5.80
2024-02-10T05:42:59.532Z,5.76
2024-02-10T05:45:25.969Z,5.77
2024-02-10T05:47:52.715Z,5.76
2024-02-10T05:50:20.056Z,5.76
2024-02-10T05:52:46.513Z,5.74
2024-02-10T05:55:12.894Z,5.72
2024-02-10T05:57:39.402Z,5.72
2024-02-10T06:00:10.015Z,5.74
2024-02-10T06:02:38.641Z,5.78
2024-02-10T06:05:05.054Z,5.78
2024-02-10T06:07:35.984Z,5.79
2024-02-10T06:10:02.592Z,5.80
2024-02-10T06:12:29.024Z,5.80
2024-02-10T06:14:55.320Z,5.80
2024-02-10T06:17:24.438Z,5.81
2024-02-10T06:19:52.018Z,5.81
2024-02-10T06:22:18.885Z,5.81
2024-02-10T06:24:45.141Z,5.83
2024-02-10T06:27:11.517Z,5.85
2024-02-10T06:29:37.754Z,5.84
2024-02-10T06:32:06.783Z,5.85
2024-02-10T06:34:35.484Z,5.82
2024-02-10T06:37:02.680Z,5.81
2024-02-10T06:39:29.916Z,5.81
2024-02-10T06:41:56.681Z,5.80
2024-02-10T06:44:22.898Z,5.80
2024-02-10T06:46:49.427Z,5.82
2024-02-10T06:49:21.443Z,5.82
2024-02-10T06:51:48.319Z,5.83
2024-02-10T06:54:15.055Z,5.87
2024-02-10T06:56:41.326Z,5.92
2024-02-10T06:59:07.697Z,5.95
2024-02-10T07:01:34.955Z,5.98
2024-02-10T07:04:02.855Z,6.05
2024-02-10T07:06:31.815Z,6.11
2024-02-10T07:09:04.486Z,6.19
2024-02-10T07:11:30.947Z,6.22
2024-02-10T07:13:57.383Z,6.25
2024-02-10T07:16:24.007Z,6.29
2024-02-10T07:18:51.903Z,6.32
2024-02-10T07:21:19.453Z,6.35
2024-02-10T07:23:45.700Z,6.38
2024-02-10T07:26:12.289Z,6.38
2024-02-10T07:28:38.594Z,6.42
2024-02-10T07:31:04.967Z,6.46
2024-02-10T07:33:31.286Z,6.50
2024-02-10T07:35:59.480Z,6.55
2024-02-10T07:38:25.779Z,6.55
2024-02-10T07:40:52.332Z,6.59
2024-02-10T07:43:18.779Z,6.63
2024-02-10T07:45:45.189Z,6.67
2024-02-10T07:48:11.621Z,6.71
2024-02-10T07:50:41.441Z,6.74
2024-02-10T07:53:11.566Z,6.78
2024-02-10T07:55:37.868Z,6.84
2024-02-10T07:58:10.174Z,6.88
2024-02-10T08:00:36.909Z,6.93
2024-02-10T08:03:04.592Z,6.99
2024-02-10T08:05:31.345Z,7.04
2024-02-10T08:08:00.833Z,7.08
2024-02-10T08:10:27.530Z,7.11
2024-02-10T08:12:54.542Z,7.15
2024-02-10T08:15:25.194Z,7.17
2024-02-10T08:17:51.862Z,7.18
2024-02-10T08:20:20.426Z,7.22
2024-02-10T08:22:49.157Z,7.25
2024-02-10T08:25:15.499Z,7.28
2024-02-10T08:27:42.060Z,7.32
2024-02-10T08:30:16.148Z,7.34
2024-02-10T08:32:42.807Z,7.39
2024-02-10T08:35:09.324Z,7.41
2024-02-10T08:37:36.221Z,7.43
2024-02-10T08:40:04.198Z,7.46
2024-02-10T08:42:30.923Z,7.47
2024-02-10T08:44:58.208Z,7.50
2024-02-10T08:47:28.302Z,7.51
2024-02-10T08:49:54.902Z,7.52
2024-02-10T08:52:24.103Z,7.53
2024-02-10T08:54:51.811Z,7.56
2024-02-10T08:57:20.245Z,7.58
2024-02-10T08:59:49.142Z,7.62
2024-02-10T09:02:17.360Z,7.66
2024-02-10T09:04:44.820Z,7.72
2024-02-10T09:07:11.204Z,7.81
2024-02-10T09:09:37.799Z,7.87
2024-02-10T09:12:04.192Z,7.93
2024-02-10T09:14:30.512Z,7.96
2024-02-10T09:16:57.091Z,7.98
2024-02-10T09:19:23.471Z,8.01
2024-02-10T09:21:56.032Z,8.05
2024-02-10T09:24:24.237Z,8.10
2024-02-10T09:26:50.532Z,8.15
2024-02-10T09:29:16.864Z,8.19
2024-02-10T09:31:43.216Z,8.20
2024-02-10T09:34:11.361Z,8.24
2024-02-10T09:36:37.989Z,8.40
2024-02-10T09:39:05.290Z,8.47
2024-02-10T09:41:31.909Z,8.51
2024-02-10T09:43:58.630Z,8.56
2024-02-10T09:46:25.158Z,8.63
2024-02-10T09:48:54.945Z,8.65
2024-02-10T09:51:21.276Z,8.69
2024-02-10T09:53:48.249Z,8.76
2024-02-10T09:56:14.889Z,8.82
2024-02-10T09:58:41.405Z,8.87
2024-02-10T10:01:07.813Z,8.95
2024-02-10T10:03:34.294Z,9.05
2024-02-10T10:06:03.451Z,9.21
2024-02-10T10:08:34.789Z,9.27
2024-02-10T10:11:02.134Z,9.24
2024-02-10T10:13:28.752Z,9.22
2024-02-10T10:15:55.130Z,9.16
2024-02-10T10:18:21.809Z,9.13
2024-02-10T10:20:48.391Z,9.14
2024-02-10T10:23:15.876Z,9.17
2024-02-10T10:25:46.239Z,9.23
2024-02-10T10:28:14.235Z,9.26
2024-02-10T10:30:40.407Z,9.32
2024-02-10T10:33:09.683Z,9.35
2024-02-10T10:35:37.591Z,9.40
2024-02-10T10:38:03.966Z,9.45
2024-02-10T10:40:31.425Z,9.48
2024-02-10T10:42:57.788Z,9.48
2024-02-10T10:45:24.219Z,9.50
2024-02-10T10:47:50.783Z,9.51
2024-02-10T10:50:17.276Z,9.55
2024-02-10T10:52:43.793Z,9.59
2024-02-10T10:55:12.288Z,9.64
2024-02-10T10:57:39.959Z,9.69
2024-02-10T11:00:15.688Z,9.73
2024-02-10T11:02:45.224Z,9.78
2024-02-10T11:05:18.626Z,9.85
2024-02-10T11:07:49.133Z,9.91
2024-02-10T11:10:17.855Z,10.00
2024-02-10T11:12:44.207Z,10.20
2024-02-10T11:15:10.640Z,10.55
2024-02-10T11:17:36.929Z,10.68
2024-02-10T11:20:04.405Z,10.66
2024-02-10T11:22:30.965Z,10.65
2024-02-10T11:24:57.324Z,10.64
2024-02-10T11:27:25.488Z,10.64
2024-02-10T11:29:52.025Z,10.67
2024-02-10T11:32:19.426Z,10.73
2024-02-10T11:34:45.747Z,10.82
2024-02-10T11:37:12.367Z,10.93
2024-02-10T11:39:38.632Z,11.03
2024-02-10T11:42:05.099Z,11.09
2024-02-10T11:44:31.831Z,11.14
2024-02-10T11:47:00.037Z,11.19
2024-02-10T11:49:27.601Z,11.24
2024-02-10T11:51:57.064Z,11.27
2024-02-10T11:54:30.058Z,11.27
2024-02-10T11:56:57.997Z,11.28
2024-02-10T11:59:26.472Z,11.28
2024-02-10T12:01:52.794Z,11.35
2024-02-10T12:04:19.421Z,11.42
2024-02-10T12:06:46.853Z,11.45
2024-02-10T12:09:13.549Z,11.45
2024-02-10T12:11:40.040Z,11.46
2024-02-10T12:14:10.931Z,11.48
2024-02-10T12:16:38.392Z,11.49
2024-02-10T12:19:04.805Z,11.52
2024-02-10T12:21:31.162Z,11.53
2024-02-10T12:23:58.935Z,11.50
2024-02-10T12:26:25.504Z,11.51
2024-02-10T12:28:51.963Z,11.52
2024-02-10T12:31:21.556Z,11.51
2024-02-10T12:33:51.993Z,11.52
2024-02-10T12:36:20.756Z,11.54
2024-02-10T12:38:47.107Z,11.58
2024-02-10T12:41:17.086Z,11.58
2024-02-10T12:43:44.391Z,11.59
2024-02-10T12:46:11.181Z,11.62
2024-02-10T12:48:37.877Z,11.66
2024-02-10T12:51:04.366Z,11.70
2024-02-10T12:53:30.593Z,11.75
2024-02-10T12:55:56.971Z,11.79
2024-02-10T12:58:25.859Z,11.84
2024-02-10T13:00:57.318Z,11.86
2024-02-10T13:03:23.711Z,11.91
2024-02-10T13:05:50.475Z,11.93
2024-02-10T13:08:18.481Z,11.91
2024-02-10T13:10:45.999Z,11.90
2024-02-10T13:13:12.442Z,11.87
2024-02-10T13:15:43.549Z,11.88
2024-02-10T13:18:10.199Z,11.88
2024-02-10T13:20:36.777Z,11.86
2024-02-10T13:23:04.381Z,11.82
2024-02-10T13:25:31.229Z,11.80
2024-02-10T13:27:57.737Z,11.76
2024-02-10T13:30:24.125Z,11.74
2024-02-10T13:32:50.459Z,11.73
2024-02-10T13:35:20.676Z,11.74
2024-02-10T13:38:08.261Z,11.73
2024-02-10T13:40:56.160Z,11.71
2024-02-10T13:43:42.736Z,11.70
2024-02-10T13:46:28.119Z,11.70
2024-02-10T13:49:16.917Z,11.68
2024-02-10T13:52:01.856Z,11.66
2024-02-10T13:54:47.018Z,11.65
2024-02-10T13:57:31.931Z,11.65
2024-02-10T13:59:58.282Z,11.65
2024-02-10T14:02:24.657Z,11.66
2024-02-10T14:04:51.490Z,11.67
2024-02-10T14:07:33.582Z,11.71
2024-02-10T14:10:12.993Z,11.90
2024-02-10T14:12:40.320Z,11.86
2024-02-10T14:15:16.700Z,11.81
2024-02-10T14:17:43.331Z,11.79
2024-02-10T14:20:19.342Z,11.77
2024-02-10T14:22:46.805Z,11.79
2024-02-10T14:25:24.451Z,11.88
2024-02-10T14:27:55.565Z,11.84
2024-02-10T14:30:32.235Z,11.81
2024-02-10T14:32:58.709Z,11.73
2024-02-10T14:35:44.769Z,11.68
2024-02-10T14:38:24.586Z,11.62
2024-02-10T14:40:51.903Z,11.54
2024-02-10T14:43:18.649Z,11.48
2024-02-10T14:45:44.985Z,11.45
2024-02-10T14:48:11.362Z,11.44
2024-02-10T14:50:38.193Z,11.40
2024-02-10T14:53:04.815Z,11.39
2024-02-10T14:55:31.260Z,11.35
2024-02-10T14:57:57.614Z,11.32
2024-02-10T15:00:31.553Z,11.27
2024-02-10T15:02:58.244Z,11.20
2024-02-10T15:05:26.784Z,11.13
2024-02-10T15:07:53.201Z,11.09
2024-02-10T15:10:19.508Z,11.02
2024-02-10T15:12:45.945Z,10.95
2024-02-10T15:15:12.486Z,10.93
2024-02-10T15:17:38.864Z,10.88
2024-02-10T15:20:05.920Z,10.82
2024-02-10T15:22:34.285Z,10.80
2024-02-10T15:25:02.533Z,10.75
2024-02-10T15:27:28.865Z,10.69
2024-02-10T15:29:58.891Z,10.61
2024-02-10T15:32:26.355Z,10.53
2024-02-10T15:35:00.491Z,10.46
2024-02-10T15:37:29.055Z,10.37
2024-02-10T15:39:55.631Z,10.25
2024-02-10T15:42:22.030Z,10.16
2024-02-10T15:44:48.603Z,10.10
2024-02-10T15:47:18.269Z,10.08
2024-02-10T15:49:44.900Z,10.04
2024-02-10T15:52:15.093Z,9.94
2024-02-10T15:54:41.289Z,9.80
2024-02-10T15:57:10.080Z,9.67
2024-02-10T15:59:38.532Z,9.59
2024-02-10T16:02:11.172Z,9.54
2024-02-10T16:04:40.335Z,9.43
2024-02-10T16:07:06.661Z,9.37
2024-02-10T16:09:33.003Z,9.31
2024-02-10T16:11:59.453Z,9.26
2024-02-10T16:14:29.529Z,9.20
2024-02-10T16:16:59.831Z,9.21
2024-02-10T16:19:27.690Z,9.15
2024-02-10T16:21:54.209Z,9.09
2024-02-10T16:24:20.515Z,9.08
2024-02-10T16:26:46.886Z,9.07
2024-02-10T16:29:13.826Z,9.02
2024-02-10T16:31:40.352Z,8.97
2024-02-10T16:34:08.457Z,8.90
2024-02-10T16:36:35.731Z,8.77
2024-02-10T16:39:02.917Z,8.62
2024-02-10T16:41:33.887Z,8.52
2024-02-10T16:44:00.372Z,8.39
2024-02-10T16:46:28.421Z,8.11
2024-02-10T16:48:54.901Z,7.95
2024-02-10T16:51:21.231Z,7.91
2024-02-10T16:53:48.598Z,7.78
2024-02-10T16:56:14.978Z,7.59
2024-02-10T16:58:41.817Z,7.48
2024-02-10T17:01:10.832Z,7.50
2024-02-10T17:03:37.434Z,7.59
2024-02-10T17:06:06.284Z,7.65
2024-02-10T17:08:32.900Z,7.65
2024-02-10T17:10:59.285Z,7.65
2024-02-10T17:13:29.381Z,7.61
2024-02-10T17:15:55.942Z,7.57
2024-02-10T17:18:22.524Z,7.56
2024-02-10T17:20:52.928Z,7.53
2024-02-10T17:23:22.511Z,7.49
2024-02-10T17:25:48.947Z,7.45
2024-02-10T17:28:15.590Z,7.42
2024-02-10T17:30:42.227Z,7.40
2024-02-10T17:33:08.760Z,7.37
2024-02-10T17:35:35.468Z,7.38
2024-02-10T17:38:02.864Z,7.39
2024-02-10T17:40:31.489Z,7.39
2024-02-10T17:42:59.781Z,7.37
2024-02-10T17:45:27.397Z,7.34
2024-02-10T17:47:53.859Z,7.32
2024-02-10T17:50:25.446Z,7.31
2024-02-10T17:52:51.998Z,7.28
2024-02-10T17:55:22.087Z,7.24
2024-02-10T17:57:48.380Z,7.15
2024-02-10T18:00:17.011Z,7.13
2024-02-10T18:02:47.780Z,7.11
2024-02-10T18:05:14.234Z,7.08
2024-02-10T18:07:40.691Z,7.11
2024-02-10T18:10:07.741Z,7.10
2024-02-10T18:12:33.980Z,7.06
2024-02-10T18:15:00.571Z,7.05
2024-02-10T18:17:26.858Z,7.05
2024-02-10T18:19:53.313Z,7.04
2024-02-10T18:22:21.265Z,7.00
2024-02-10T18:24:48.417Z,6.97
2024-02-10T18:27:15.677Z,6.97
2024-02-10T18:29:42.048Z,6.94
2024-02-10T18:32:09.013Z,6.87
2024-02-10T18:34:35.836Z,6.89
2024-02-10T18:37:02.631Z,6.96
2024-02-10T18:39:29.052Z,7.03
2024-02-10T18:41:55.626Z,7.09
2024-02-10T18:44:22.789Z,7.13
2024-02-10T18:46:50.718Z,7.13
2024-02-10T18:49:17.073Z,7.10
2024-02-10T18:51:43.485Z,7.08
2024-02-10T18:54:13.604Z,7.05
2024-02-10T18:56:42.171Z,6.99
2024-02-10T18:59:09.315Z,6.97
2024-02-10T19:01:36.583Z,6.96
2024-02-10T19:04:05.554Z,6.97
2024-02-10T19:06:31.982Z,6.97
2024-02-10T19:08:59.025Z,6.91
2024-02-10T19:11:25.513Z,6.87
2024-02-10T19:13:55.022Z,6.82
2024-02-10T19:16:21.397Z,6.84
2024-02-10T19:18:49.414Z,6.89
2024-02-10T19:21:16.617Z,6.89
2024-02-10T19:23:44.322Z,6.88
2024-02-10T19:26:10.778Z,6.89
2024-02-10T19:28:37.246Z,6.90
2024-02-10T19:31:03.766Z,6.88
2024-02-10T19:33:30.362Z,6.87
2024-02-10T19:35:57.044Z,6.88
2024-02-10T19:38:29.904Z,6.88
2024-02-10T19:40:58.748Z,6.86
2024-02-10T19:43:29.096Z,6.81
2024-02-10T19:45:55.449Z,6.74
2024-02-10T19:48:24.519Z,6.69
2024-02-10T19:50:50.937Z,6.67
2024-02-10T19:53:18.804Z,6.66
2024-02-10T19:55:45.430Z,6.72
2024-02-10T19:58:13.371Z,6.75
2024-02-10T20:00:39.882Z,6.83
2024-02-10T20:03:07.716Z,6.84
2024-02-10T20:05:37.264Z,6.88
2024-02-10T20:08:08.272Z,6.99
2024-02-10T20:10:34.973Z,7.14
2024-02-10T20:13:05.252Z,7.43
2024-02-10T20:15:32.538Z,7.56
2024-02-10T20:18:03.384Z,7.55
2024-02-10T20:20:31.623Z,7.53
2024-02-10T20:22:58.032Z,7.51
2024-02-10T20:25:26.157Z,7.49
2024-02-10T20:27:52.648Z,7.47
2024-02-10T20:30:22.651Z,7.50
2024-02-10T20:32:50.010Z,7.51
2024-02-10T20:35:18.792Z,7.45
2024-02-10T20:37:45.240Z,7.50
2024-02-10T20:40:14.973Z,7.60
2024-02-10T20:42:41.267Z,7.70
2024-02-10T20:45:07.699Z,7.73
2024-02-10T20:47:38.852Z,7.65
2024-02-10T20:50:05.279Z,7.57
2024-02-10T20:52:32.470Z,7.56
2024-02-10T20:54:58.912Z,7.52
2024-02-10T20:57:28.711Z,7.54
2024-02-10T20:59:57.966Z,7.50
2024-02-10T21:02:27.067Z,7.49
2024-02-10T21:04:53.435Z,7.49
2024-02-10T21:07:21.750Z,7.49
2024-02-10T21:09:48.295Z,7.48
2024-02-10T21:12:15.855Z,7.48
2024-02-10T21:14:44.706Z,7.47
2024-02-10T21:17:11.095Z,7.46
2024-02-10T21:19:39.233Z,7.46
2024-02-10T21:22:06.599Z,7.46
2024-02-10T21:24:33.059Z,7.46
2024-02-10T21:26:59.478Z,7.44
2024-02-10T21:29:25.936Z,7.42
2024-02-10T21:31:53.474Z,7.38
2024-02-10T21:34:19.816Z,7.34
2024-02-10T21:36:46.312Z,7.31
2024-02-10T21:39:16.678Z,7.30
2024-02-10T21:41:48.813Z,7.28
2024-02-10T21:44:16.243Z,7.31
2024-02-10T21:46:43.183Z,7.33
2024-02-10T21:49:09.534Z,7.36
2024-02-10T21:51:36.321Z,7.35
2024-02-10T21:54:02.737Z,7.33
2024-02-10T21:56:29.991Z,7.28
2024-02-10T21:59:00.417Z,7.25
2024-02-10T22:01:29.665Z,7.24
2024-02-10T22:03:56.180Z,7.19
2024-02-10T22:06:22.549Z,7.16
2024-02-10T22:08:49.200Z,7.17
2024-02-10T22:11:15.658Z,7.20
2024-02-10T22:13:42.418Z,7.22
2024-02-10T22:16:08.662Z,7.22
2024-02-10T22:18:38.096Z,7.26
2024-02-10T22:21:05.881Z,7.26
2024-02-10T22:23:33.434Z,7.28
2024-02-10T22:26:00.552Z,7.31
2024-02-10T22:28:30.971Z,7.32
2024-02-10T22:30:58.973Z,7.34
2024-02-10T22:33:25.565Z,7.35
2024-02-10T22:35:53.451Z,7.38
2024-02-10T22:38:21.887Z,7.39
2024-02-10T22:40:48.413Z,7.34
2024-02-10T22:43:16.557Z,7.28
2024-02-10T22:45:45.479Z,7.28
2024-02-10T22:48:12.503Z,7.29
2024-02-10T22:50:39.240Z,7.31
2024-02-10T22:53:05.838Z,7.35
2024-02-10T22:55:36.482Z,7.41
2024-02-10T22:58:04.776Z,7.45
2024-02-10T23:00:42.680Z,7.47
2024-02-10T23:03:10.056Z,7.49
2024-02-10T23:05:36.717Z,7.50
2024-02-10T23:08:03.306Z,7.52
2024-02-10T23:10:29.760Z,7.53
2024-02-10T23:13:08.614Z,7.54
2024-02-10T23:15:36.126Z,7.57
2024-02-10T23:18:11.364Z,7.57
2024-02-10T23:20:42.627Z,7.59
2024-02-10T23:23:15.846Z,7.60
2024-02-10T23:25:42.581Z,7.59
2024-02-10T23:28:15.180Z,7.61
2024-02-10T23:30:41.504Z,7.63
2024-02-10T23:33:07.949Z,7.63
2024-02-10T23:35:36.471Z,7.65
2024-02-10T23:38:03.138Z,7.70
2024-02-10T23:40:31.430Z,7.74
2024-02-10T23:43:03.820Z,7.77
2024-02-10T23:45:30.955Z,7.76
2024-02-10T23:47:59.245Z,7.75
2024-02-10T23:50:28.469Z,7.76
2024-02-10T23:52:55.286Z,7.80
2024-02-10T23:55:23.127Z,7.84
2024-02-10T23:57:49.607Z,7.88
